Port Hedland International Airport
YPPD : now visible

Airfield :











YOU CAN JOIN US ON...

 
LOGIN :

Register | Disclaimer

   EN    FR    IT 

 









Legend :    VFR   Marginal VFR   IFR   Intensive IFR   Very Intensive IFR
Visi :
Ceiling :
>= 8 km
>= 3000ft
5 to 8 km
1000 to 3000 ft
1500m to 5 km
500 to 1000 ft
800 to 1500m
200 to 500 ft
< 800m
< 200 ft
Symbols :   Thunderstorms  Fog  Heavy snow  Heavy precipitations  Wind > 20 kt






- Airport Elevation : 33 ft
- IATA code : PHE


YPPD - Port Hedland International

CURRENT METAR :
  • 270400Z AUTO 36009KT 9999 // NCD 38/20 Q1008

EXPIRED METARs :
  • 270330Z AUTO 36009KT 9999 // NCD 38/21 Q1008 RF00.0/000.0
  • 270300Z AUTO 02010KT 9999 // NCD 37/22 Q1009
  • 270230Z AUTO 01008KT 9999 // NCD 36/23 Q1009 RF00.0/000.0
  • 270200Z AUTO 36003KT 9999 // NCD 36/24 Q1009
  • 270130Z AUTO 17005KT 130V210 9999 // NCD 35/25 Q1009 RF00.0/000.0
  • 270100Z AUTO 30003KT 9999 // NCD 34/24 Q1009

TAF TAF YPPD
Valid from the 27 at 00:00 until the 28 at 00:00 UTC


262310Z 2700/2800 26010KT CAVOK
FM270400 32014KT CAVOK
FM271400 28008KT CAVOK



MET'MAP, your aeronautical weather chart ! - Copyright ORBIFLY December 2007 - Disclaimer

ORBIFLY MET'MAP TEAM :

Programming & Development : Alexandra Zaïnal
Concept & original design : Baudouin d'Aumeries
Assistance for programming : Marc-Olivier Méhu
Technical & hardware support : Manuel Goepfert

Contact : metmap@orbifly.com




SOURCES & CREDITS :

   NOAA       Earth
Advisory